sensor_id;sensor_type;location;lat;lon;timestamp;P1;durP1;ratioP1;P2;durP2;ratioP2
64598;SDS011;51008;51.504;11.548;2023-03-16T00:02:13;7.10;;;2.80;;
64598;SDS011;51008;51.504;11.548;2023-03-16T00:07:14;7.47;;;3.20;;
64598;SDS011;51008;51.504;11.548;2023-03-16T00:12:16;9.50;;;3.60;;
64598;SDS011;51008;51.504;11.548;2023-03-16T00:17:19;13.65;;;3.80;;
64598;SDS011;51008;51.504;11.548;2023-03-16T00:22:20;13.27;;;3.33;;
64598;SDS011;51008;51.504;11.548;2023-03-16T00:27:25;9.10;;;3.45;;
64598;SDS011;51008;51.504;11.548;2023-03-16T00:32:28;10.57;;;3.25;;
64598;SDS011;51008;51.504;11.548;2023-03-16T00:37:31;8.35;;;3.70;;
64598;SDS011;51008;51.504;11.548;2023-03-16T00:42:33;12.90;;;4.22;;
64598;SDS011;51008;51.504;11.548;2023-03-16T00:47:34;7.85;;;3.50;;
64598;SDS011;51008;51.504;11.548;2023-03-16T00:52:35;10.32;;;4.15;;
64598;SDS011;51008;51.504;11.548;2023-03-16T00:57:36;12.00;;;4.05;;
64598;SDS011;51008;51.504;11.548;2023-03-16T01:02:37;11.52;;;3.88;;
64598;SDS011;51008;51.504;11.548;2023-03-16T01:07:39;18.67;;;4.15;;
64598;SDS011;51008;51.504;11.548;2023-03-16T01:12:40;11.13;;;4.10;;
64598;SDS011;51008;51.504;11.548;2023-03-16T01:17:41;14.27;;;3.80;;
64598;SDS011;51008;51.504;11.548;2023-03-16T01:22:42;12.30;;;3.72;;
64598;SDS011;51008;51.504;11.548;2023-03-16T01:27:43;8.45;;;3.78;;
64598;SDS011;51008;51.504;11.548;2023-03-16T01:32:44;10.35;;;3.88;;
64598;SDS011;51008;51.504;11.548;2023-03-16T01:37:47;7.28;;;3.28;;
64598;SDS011;51008;51.504;11.548;2023-03-16T01:42:58;11.57;;;4.03;;
64598;SDS011;51008;51.504;11.548;2023-03-16T01:48:06;10.97;;;3.17;;
64598;SDS011;51008;51.504;11.548;2023-03-16T01:53:07;9.70;;;3.50;;
64598;SDS011;51008;51.504;11.548;2023-03-16T01:58:09;8.13;;;3.17;;
64598;SDS011;51008;51.504;11.548;2023-03-16T02:03:15;10.25;;;3.15;;
64598;SDS011;51008;51.504;11.548;2023-03-16T02:08:29;9.50;;;3.78;;
64598;SDS011;51008;51.504;11.548;2023-03-16T02:13:31;10.30;;;2.95;;
64598;SDS011;51008;51.504;11.548;2023-03-16T02:18:35;7.65;;;3.17;;
64598;SDS011;51008;51.504;11.548;2023-03-16T02:23:36;9.43;;;3.40;;
64598;SDS011;51008;51.504;11.548;2023-03-16T02:28:41;11.10;;;3.33;;
64598;SDS011;51008;51.504;11.548;2023-03-16T02:33:49;9.82;;;3.13;;
64598;SDS011;51008;51.504;11.548;2023-03-16T02:38:53;8.15;;;2.97;;
64598;SDS011;51008;51.504;11.548;2023-03-16T02:43:57;11.85;;;3.28;;
64598;SDS011;51008;51.504;11.548;2023-03-16T02:49:10;8.98;;;3.22;;
64598;SDS011;51008;51.504;11.548;2023-03-16T02:54:15;8.55;;;3.58;;
64598;SDS011;51008;51.504;11.548;2023-03-16T02:59:16;8.70;;;2.92;;
64598;SDS011;51008;51.504;11.548;2023-03-16T03:04:17;7.47;;;2.75;;
64598;SDS011;51008;51.504;11.548;2023-03-16T03:09:18;11.98;;;3.50;;
64598;SDS011;51008;51.504;11.548;2023-03-16T03:14:21;10.10;;;3.20;;
64598;SDS011;51008;51.504;11.548;2023-03-16T03:19:24;10.20;;;3.22;;
64598;SDS011;51008;51.504;11.548;2023-03-16T03:24:25;8.20;;;3.50;;
64598;SDS011;51008;51.504;11.548;2023-03-16T03:29:26;8.30;;;3.75;;
64598;SDS011;51008;51.504;11.548;2023-03-16T03:34:27;13.75;;;3.80;;
64598;SDS011;51008;51.504;11.548;2023-03-16T03:39:29;13.75;;;4.03;;
64598;SDS011;51008;51.504;11.548;2023-03-16T03:44:30;19.58;;;5.70;;
64598;SDS011;51008;51.504;11.548;2023-03-16T03:49:31;12.30;;;4.75;;
64598;SDS011;51008;51.504;11.548;2023-03-16T03:54:32;7.57;;;3.67;;
64598;SDS011;51008;51.504;11.548;2023-03-16T03:59:38;11.25;;;3.67;;
64598;SDS011;51008;51.504;11.548;2023-03-16T04:04:42;13.38;;;3.65;;
64598;SDS011;51008;51.504;11.548;2023-03-16T04:09:45;8.43;;;3.13;;
64598;SDS011;51008;51.504;11.548;2023-03-16T04:15:01;8.77;;;3.17;;
64598;SDS011;51008;51.504;11.548;2023-03-16T04:20:09;7.05;;;3.75;;
64598;SDS011;51008;51.504;11.548;2023-03-16T04:25:12;10.35;;;3.97;;
64598;SDS011;51008;51.504;11.548;2023-03-16T04:30:14;9.60;;;3.65;;
64598;SDS011;51008;51.504;11.548;2023-03-16T04:35:20;13.02;;;5.15;;
64598;SDS011;51008;51.504;11.548;2023-03-16T04:40:26;11.10;;;4.80;;
64598;SDS011;51008;51.504;11.548;2023-03-16T04:45:35;11.30;;;4.78;;
64598;SDS011;51008;51.504;11.548;2023-03-16T04:50:36;12.93;;;5.90;;
64598;SDS011;51008;51.504;11.548;2023-03-16T04:55:38;16.00;;;7.43;;
64598;SDS011;51008;51.504;11.548;2023-03-16T05:00:40;17.45;;;6.70;;
64598;SDS011;51008;51.504;11.548;2023-03-16T05:05:50;15.93;;;6.13;;
64598;SDS011;51008;51.504;11.548;2023-03-16T05:10:55;14.10;;;6.53;;
64598;SDS011;51008;51.504;11.548;2023-03-16T05:15:56;16.97;;;6.90;;
64598;SDS011;51008;51.504;11.548;2023-03-16T05:21:05;15.73;;;6.70;;
64598;SDS011;51008;51.504;11.548;2023-03-16T05:26:17;14.33;;;4.90;;
64598;SDS011;51008;51.504;11.548;2023-03-16T05:31:19;23.20;;;5.43;;
64598;SDS011;51008;51.504;11.548;2023-03-16T05:36:25;17.52;;;4.82;;
64598;SDS011;51008;51.504;11.548;2023-03-16T05:41:31;11.38;;;4.50;;
64598;SDS011;51008;51.504;11.548;2023-03-16T05:46:54;9.07;;;4.30;;
64598;SDS011;51008;51.504;11.548;2023-03-16T05:51:56;13.10;;;4.60;;
64598;SDS011;51008;51.504;11.548;2023-03-16T05:56:57;11.20;;;4.77;;
64598;SDS011;51008;51.504;11.548;2023-03-16T06:01:59;15.20;;;5.07;;
64598;SDS011;51008;51.504;11.548;2023-03-16T06:07:00;11.60;;;3.83;;
64598;SDS011;51008;51.504;11.548;2023-03-16T06:12:03;10.32;;;4.20;;
64598;SDS011;51008;51.504;11.548;2023-03-16T06:17:04;13.37;;;3.50;;
64598;SDS011;51008;51.504;11.548;2023-03-16T06:22:07;12.43;;;4.45;;
64598;SDS011;51008;51.504;11.548;2023-03-16T06:27:09;14.17;;;4.63;;
64598;SDS011;51008;51.504;11.548;2023-03-16T06:32:23;17.02;;;6.40;;
64598;SDS011;51008;51.504;11.548;2023-03-16T06:37:24;19.75;;;8.15;;
64598;SDS011;51008;51.504;11.548;2023-03-16T06:42:26;14.45;;;6.95;;
64598;SDS011;51008;51.504;11.548;2023-03-16T06:47:27;19.48;;;7.65;;
64598;SDS011;51008;51.504;11.548;2023-03-16T06:52:28;17.02;;;8.63;;
64598;SDS011;51008;51.504;11.548;2023-03-16T06:57:29;26.00;;;9.57;;
64598;SDS011;51008;51.504;11.548;2023-03-16T07:02:30;22.85;;;8.85;;
64598;SDS011;51008;51.504;11.548;2023-03-16T07:07:32;17.63;;;7.93;;
64598;SDS011;51008;51.504;11.548;2023-03-16T07:12:33;16.23;;;7.07;;
64598;SDS011;51008;51.504;11.548;2023-03-16T07:17:34;14.45;;;7.15;;
64598;SDS011;51008;51.504;11.548;2023-03-16T07:22:38;16.52;;;7.80;;
64598;SDS011;51008;51.504;11.548;2023-03-16T07:32:44;13.43;;;7.03;;
64598;SDS011;51008;51.504;11.548;2023-03-16T07:37:46;19.65;;;7.30;;
64598;SDS011;51008;51.504;11.548;2023-03-16T07:42:47;13.88;;;7.85;;
64598;SDS011;51008;51.504;11.548;2023-03-16T07:47:59;15.90;;;7.63;;
64598;SDS011;51008;51.504;11.548;2023-03-16T07:53:13;14.67;;;7.47;;
64598;SDS011;51008;51.504;11.548;2023-03-16T07:58:17;14.90;;;6.32;;
64598;SDS011;51008;51.504;11.548;2023-03-16T08:03:18;13.57;;;6.05;;
64598;SDS011;51008;51.504;11.548;2023-03-16T08:08:20;14.73;;;6.30;;
64598;SDS011;51008;51.504;11.548;2023-03-16T08:13:22;16.10;;;7.10;;
64598;SDS011;51008;51.504;11.548;2023-03-16T08:18:27;13.68;;;6.05;;
64598;SDS011;51008;51.504;11.548;2023-03-16T08:23:29;15.93;;;6.53;;
64598;SDS011;51008;51.504;11.548;2023-03-16T08:28:30;9.70;;;5.53;;
64598;SDS011;51008;51.504;11.548;2023-03-16T08:33:33;13.00;;;4.40;;
64598;SDS011;51008;51.504;11.548;2023-03-16T08:38:35;14.23;;;4.05;;
64598;SDS011;51008;51.504;11.548;2023-03-16T08:43:40;12.00;;;3.88;;
64598;SDS011;51008;51.504;11.548;2023-03-16T08:48:41;12.98;;;3.92;;
64598;SDS011;51008;51.504;11.548;2023-03-16T08:53:43;10.50;;;3.35;;
64598;SDS011;51008;51.504;11.548;2023-03-16T08:58:44;5.40;;;1.88;;
64598;SDS011;51008;51.504;11.548;2023-03-16T09:03:45;9.18;;;1.90;;
64598;SDS011;51008;51.504;11.548;2023-03-16T09:08:46;6.43;;;1.70;;
64598;SDS011;51008;51.504;11.548;2023-03-16T09:13:47;8.35;;;1.67;;
64598;SDS011;51008;51.504;11.548;2023-03-16T09:18:48;7.82;;;1.50;;
64598;SDS011;51008;51.504;11.548;2023-03-16T09:23:49;4.32;;;1.27;;
64598;SDS011;51008;51.504;11.548;2023-03-16T09:28:50;4.07;;;1.30;;
64598;SDS011;51008;51.504;11.548;2023-03-16T09:33:51;5.20;;;1.55;;
64598;SDS011;51008;51.504;11.548;2023-03-16T09:38:52;4.25;;;1.02;;
64598;SDS011;51008;51.504;11.548;2023-03-16T09:49:33;6.10;;;1.33;;
64598;SDS011;51008;51.504;11.548;2023-03-16T09:54:39;6.40;;;1.83;;
64598;SDS011;51008;51.504;11.548;2023-03-16T09:59:47;4.32;;;1.60;;
64598;SDS011;51008;51.504;11.548;2023-03-16T10:15:10;9.57;;;2.03;;
64598;SDS011;51008;51.504;11.548;2023-03-16T10:20:16;9.10;;;1.83;;
64598;SDS011;51008;51.504;11.548;2023-03-16T10:30:43;6.00;;;1.70;;
64598;SDS011;51008;51.504;11.548;2023-03-16T10:40:57;7.80;;;1.83;;
64598;SDS011;51008;51.504;11.548;2023-03-16T10:46:00;11.55;;;2.10;;
64598;SDS011;51008;51.504;11.548;2023-03-16T10:51:02;5.35;;;1.60;;
64598;SDS011;51008;51.504;11.548;2023-03-16T10:56:20;3.22;;;1.30;;
64598;SDS011;51008;51.504;11.548;2023-03-16T11:01:24;4.88;;;1.95;;
64598;SDS011;51008;51.504;11.548;2023-03-16T11:06:27;7.15;;;2.45;;
64598;SDS011;51008;51.504;11.548;2023-03-16T11:11:30;7.43;;;2.07;;
64598;SDS011;51008;51.504;11.548;2023-03-16T11:22:09;7.53;;;1.52;;
64598;SDS011;51008;51.504;11.548;2023-03-16T11:37:43;4.13;;;1.30;;
64598;SDS011;51008;51.504;11.548;2023-03-16T11:48:43;6.28;;;1.45;;
64598;SDS011;51008;51.504;11.548;2023-03-16T12:14:55;2.38;;;0.90;;
64598;SDS011;51008;51.504;11.548;2023-03-16T12:20:06;3.08;;;1.10;;
64598;SDS011;51008;51.504;11.548;2023-03-16T12:25:18;4.70;;;1.67;;
64598;SDS011;51008;51.504;11.548;2023-03-16T12:35:38;5.15;;;1.70;;
64598;SDS011;51008;51.504;11.548;2023-03-16T12:46:25;7.47;;;1.58;;
64598;SDS011;51008;51.504;11.548;2023-03-16T12:51:44;5.15;;;1.67;;
64598;SDS011;51008;51.504;11.548;2023-03-16T12:56:46;7.88;;;1.83;;
64598;SDS011;51008;51.504;11.548;2023-03-16T13:01:52;5.22;;;1.75;;
64598;SDS011;51008;51.504;11.548;2023-03-16T13:07:01;6.38;;;2.00;;
64598;SDS011;51008;51.504;11.548;2023-03-16T13:12:06;7.50;;;1.90;;
64598;SDS011;51008;51.504;11.548;2023-03-16T13:22:27;5.78;;;2.10;;
64598;SDS011;51008;51.504;11.548;2023-03-16T13:27:32;7.38;;;1.92;;
64598;SDS011;51008;51.504;11.548;2023-03-16T13:32:33;4.75;;;1.80;;
64598;SDS011;51008;51.504;11.548;2023-03-16T13:37:34;6.38;;;1.60;;
64598;SDS011;51008;51.504;11.548;2023-03-16T13:42:35;6.03;;;1.60;;
64598;SDS011;51008;51.504;11.548;2023-03-16T13:47:40;10.50;;;2.10;;
64598;SDS011;51008;51.504;11.548;2023-03-16T13:52:42;8.93;;;1.80;;
64598;SDS011;51008;51.504;11.548;2023-03-16T13:57:52;4.18;;;1.50;;
64598;SDS011;51008;51.504;11.548;2023-03-16T14:02:54;5.88;;;1.52;;
64598;SDS011;51008;51.504;11.548;2023-03-16T14:07:56;3.70;;;1.45;;
64598;SDS011;51008;51.504;11.548;2023-03-16T14:18:47;7.85;;;2.15;;
64598;SDS011;51008;51.504;11.548;2023-03-16T14:23:51;5.10;;;1.77;;
64598;SDS011;51008;51.504;11.548;2023-03-16T14:29:09;6.45;;;1.75;;
64598;SDS011;51008;51.504;11.548;2023-03-16T14:34:27;4.38;;;1.30;;
64598;SDS011;51008;51.504;11.548;2023-03-16T14:39:30;7.43;;;1.70;;
64598;SDS011;51008;51.504;11.548;2023-03-16T14:44:31;4.75;;;1.80;;
64598;SDS011;51008;51.504;11.548;2023-03-16T14:49:36;4.07;;;1.55;;
64598;SDS011;51008;51.504;11.548;2023-03-16T14:54:38;8.20;;;1.50;;
64598;SDS011;51008;51.504;11.548;2023-03-16T14:59:39;4.40;;;1.83;;
64598;SDS011;51008;51.504;11.548;2023-03-16T15:04:39;5.35;;;1.80;;
64598;SDS011;51008;51.504;11.548;2023-03-16T15:09:41;5.38;;;2.10;;
64598;SDS011;51008;51.504;11.548;2023-03-16T15:14:42;3.30;;;1.27;;
64598;SDS011;51008;51.504;11.548;2023-03-16T15:19:43;5.15;;;1.60;;
64598;SDS011;51008;51.504;11.548;2023-03-16T15:24:44;4.57;;;1.60;;
64598;SDS011;51008;51.504;11.548;2023-03-16T15:29:45;6.90;;;1.73;;
64598;SDS011;51008;51.504;11.548;2023-03-16T15:34:46;7.78;;;2.00;;
64598;SDS011;51008;51.504;11.548;2023-03-16T15:39:47;7.25;;;1.90;;
64598;SDS011;51008;51.504;11.548;2023-03-16T15:44:48;6.95;;;1.70;;
64598;SDS011;51008;51.504;11.548;2023-03-16T15:49:49;7.93;;;1.55;;
64598;SDS011;51008;51.504;11.548;2023-03-16T15:54:50;4.13;;;1.40;;
64598;SDS011;51008;51.504;11.548;2023-03-16T15:59:51;5.20;;;1.83;;
64598;SDS011;51008;51.504;11.548;2023-03-16T16:04:52;6.63;;;2.15;;
64598;SDS011;51008;51.504;11.548;2023-03-16T16:09:54;4.47;;;1.50;;
64598;SDS011;51008;51.504;11.548;2023-03-16T16:14:54;8.40;;;1.90;;
64598;SDS011;51008;51.504;11.548;2023-03-16T16:19:55;6.57;;;1.98;;
64598;SDS011;51008;51.504;11.548;2023-03-16T16:24:56;6.47;;;2.42;;
64598;SDS011;51008;51.504;11.548;2023-03-16T16:29:57;6.32;;;2.08;;
64598;SDS011;51008;51.504;11.548;2023-03-16T16:34:58;5.25;;;2.10;;
64598;SDS011;51008;51.504;11.548;2023-03-16T16:39:59;4.28;;;1.80;;
64598;SDS011;51008;51.504;11.548;2023-03-16T16:45:00;6.78;;;1.88;;
64598;SDS011;51008;51.504;11.548;2023-03-16T16:50:07;6.88;;;1.98;;
64598;SDS011;51008;51.504;11.548;2023-03-16T16:55:13;4.15;;;1.60;;
64598;SDS011;51008;51.504;11.548;2023-03-16T17:05:24;7.13;;;1.90;;
64598;SDS011;51008;51.504;11.548;2023-03-16T17:10:26;5.32;;;2.15;;
64598;SDS011;51008;51.504;11.548;2023-03-16T17:15:28;5.97;;;1.85;;
64598;SDS011;51008;51.504;11.548;2023-03-16T17:20:30;6.22;;;2.13;;
64598;SDS011;51008;51.504;11.548;2023-03-16T17:25:31;5.43;;;1.92;;
64598;SDS011;51008;51.504;11.548;2023-03-16T17:30:32;6.55;;;3.17;;
64598;SDS011;51008;51.504;11.548;2023-03-16T17:35:33;6.70;;;3.03;;
64598;SDS011;51008;51.504;11.548;2023-03-16T17:40:34;7.10;;;3.00;;
64598;SDS011;51008;51.504;11.548;2023-03-16T17:45:35;5.53;;;2.65;;
64598;SDS011;51008;51.504;11.548;2023-03-16T17:50:36;7.63;;;3.33;;
64598;SDS011;51008;51.504;11.548;2023-03-16T17:55:37;10.68;;;3.45;;
64598;SDS011;51008;51.504;11.548;2023-03-16T18:00:39;7.45;;;3.20;;
64598;SDS011;51008;51.504;11.548;2023-03-16T18:05:40;7.90;;;2.78;;
64598;SDS011;51008;51.504;11.548;2023-03-16T18:10:43;7.55;;;3.38;;
64598;SDS011;51008;51.504;11.548;2023-03-16T18:15:45;6.90;;;2.95;;
64598;SDS011;51008;51.504;11.548;2023-03-16T18:20:47;11.43;;;3.33;;
64598;SDS011;51008;51.504;11.548;2023-03-16T18:25:50;8.63;;;3.30;;
64598;SDS011;51008;51.504;11.548;2023-03-16T18:30:52;9.18;;;3.38;;
64598;SDS011;51008;51.504;11.548;2023-03-16T18:35:54;7.57;;;2.90;;
64598;SDS011;51008;51.504;11.548;2023-03-16T18:40:58;6.73;;;3.13;;
64598;SDS011;51008;51.504;11.548;2023-03-16T18:46:00;10.93;;;3.40;;
64598;SDS011;51008;51.504;11.548;2023-03-16T18:51:01;6.93;;;3.00;;
64598;SDS011;51008;51.504;11.548;2023-03-16T18:56:04;7.93;;;3.25;;
64598;SDS011;51008;51.504;11.548;2023-03-16T19:01:05;6.13;;;3.00;;
64598;SDS011;51008;51.504;11.548;2023-03-16T19:06:07;8.00;;;3.45;;
64598;SDS011;51008;51.504;11.548;2023-03-16T19:11:17;8.93;;;3.40;;
64598;SDS011;51008;51.504;11.548;2023-03-16T19:16:18;10.27;;;3.30;;
64598;SDS011;51008;51.504;11.548;2023-03-16T19:21:21;7.93;;;3.33;;
64598;SDS011;51008;51.504;11.548;2023-03-16T19:26:22;9.30;;;3.50;;
64598;SDS011;51008;51.504;11.548;2023-03-16T19:31:27;8.27;;;3.70;;
64598;SDS011;51008;51.504;11.548;2023-03-16T19:36:30;10.15;;;3.63;;
64598;SDS011;51008;51.504;11.548;2023-03-16T19:41:32;7.07;;;3.03;;
64598;SDS011;51008;51.504;11.548;2023-03-16T19:46:37;7.70;;;3.25;;
64598;SDS011;51008;51.504;11.548;2023-03-16T19:51:38;8.23;;;3.40;;
64598;SDS011;51008;51.504;11.548;2023-03-16T19:56:39;10.75;;;3.55;;
64598;SDS011;51008;51.504;11.548;2023-03-16T20:01:40;7.20;;;3.60;;
64598;SDS011;51008;51.504;11.548;2023-03-16T20:06:41;10.00;;;3.80;;
64598;SDS011;51008;51.504;11.548;2023-03-16T20:11:42;7.20;;;3.53;;
64598;SDS011;51008;51.504;11.548;2023-03-16T20:16:43;7.75;;;3.50;;
64598;SDS011;51008;51.504;11.548;2023-03-16T20:21:44;7.25;;;3.03;;
64598;SDS011;51008;51.504;11.548;2023-03-16T20:26:47;11.65;;;3.60;;
64598;SDS011;51008;51.504;11.548;2023-03-16T20:31:49;7.60;;;3.13;;
64598;SDS011;51008;51.504;11.548;2023-03-16T20:36:50;7.13;;;3.15;;
64598;SDS011;51008;51.504;11.548;2023-03-16T20:41:52;6.78;;;3.30;;
64598;SDS011;51008;51.504;11.548;2023-03-16T20:46:53;9.88;;;3.63;;
64598;SDS011;51008;51.504;11.548;2023-03-16T20:51:54;5.95;;;2.92;;
64598;SDS011;51008;51.504;11.548;2023-03-16T20:56:55;7.95;;;3.50;;
64598;SDS011;51008;51.504;11.548;2023-03-16T21:01:56;14.18;;;3.95;;
64598;SDS011;51008;51.504;11.548;2023-03-16T21:06:57;7.38;;;3.22;;
64598;SDS011;51008;51.504;11.548;2023-03-16T21:11:58;9.32;;;3.97;;
64598;SDS011;51008;51.504;11.548;2023-03-16T21:16:59;7.22;;;3.35;;
64598;SDS011;51008;51.504;11.548;2023-03-16T21:22:00;13.13;;;4.63;;
64598;SDS011;51008;51.504;11.548;2023-03-16T21:27:01;7.63;;;3.75;;
64598;SDS011;51008;51.504;11.548;2023-03-16T21:32:07;12.88;;;4.10;;
64598;SDS011;51008;51.504;11.548;2023-03-16T21:37:18;8.77;;;4.18;;
64598;SDS011;51008;51.504;11.548;2023-03-16T21:42:21;12.52;;;4.28;;
64598;SDS011;51008;51.504;11.548;2023-03-16T21:47:23;11.25;;;3.92;;
64598;SDS011;51008;51.504;11.548;2023-03-16T21:52:27;6.35;;;3.85;;
64598;SDS011;51008;51.504;11.548;2023-03-16T21:57:28;13.20;;;4.53;;
64598;SDS011;51008;51.504;11.548;2023-03-16T22:02:29;10.32;;;4.55;;
64598;SDS011;51008;51.504;11.548;2023-03-16T22:07:32;7.38;;;4.18;;
64598;SDS011;51008;51.504;11.548;2023-03-16T22:12:33;10.35;;;4.88;;
64598;SDS011;51008;51.504;11.548;2023-03-16T22:17:33;10.77;;;4.93;;
64598;SDS011;51008;51.504;11.548;2023-03-16T22:22:35;7.13;;;3.95;;
64598;SDS011;51008;51.504;11.548;2023-03-16T22:27:36;10.07;;;4.63;;
64598;SDS011;51008;51.504;11.548;2023-03-16T22:32:37;11.75;;;4.85;;
64598;SDS011;51008;51.504;11.548;2023-03-16T22:37:38;12.48;;;5.38;;
64598;SDS011;51008;51.504;11.548;2023-03-16T22:42:39;13.85;;;4.97;;
64598;SDS011;51008;51.504;11.548;2023-03-16T22:47:40;12.10;;;4.85;;
64598;SDS011;51008;51.504;11.548;2023-03-16T22:52:41;10.05;;;4.55;;
64598;SDS011;51008;51.504;11.548;2023-03-16T22:57:43;10.15;;;4.75;;
64598;SDS011;51008;51.504;11.548;2023-03-16T23:02:47;15.82;;;5.03;;
64598;SDS011;51008;51.504;11.548;2023-03-16T23:07:49;11.27;;;5.35;;
64598;SDS011;51008;51.504;11.548;2023-03-16T23:12:50;11.48;;;4.90;;
64598;SDS011;51008;51.504;11.548;2023-03-16T23:17:52;12.90;;;5.15;;
64598;SDS011;51008;51.504;11.548;2023-03-16T23:22:53;9.80;;;4.88;;
64598;SDS011;51008;51.504;11.548;2023-03-16T23:27:54;10.82;;;4.95;;
64598;SDS011;51008;51.504;11.548;2023-03-16T23:32:56;12.10;;;4.90;;
64598;SDS011;51008;51.504;11.548;2023-03-16T23:37:57;12.05;;;5.05;;
64598;SDS011;51008;51.504;11.548;2023-03-16T23:42:58;12.10;;;4.97;;
64598;SDS011;51008;51.504;11.548;2023-03-16T23:48:01;12.27;;;5.28;;
64598;SDS011;51008;51.504;11.548;2023-03-16T23:53:08;11.80;;;4.20;;
64598;SDS011;51008;51.504;11.548;2023-03-16T23:58:12;11.88;;;5.32;;
